sensor_id;sensor_type;location;lat;lon;timestamp;P1;durP1;ratioP1;P2;durP2;ratioP2
65189;SDS011;51777;53.570;9.984;2022-09-09T00:03:43;37.92;;;20.98;;
65189;SDS011;51777;53.570;9.984;2022-09-09T00:09:04;35.25;;;20.52;;
65189;SDS011;51777;53.570;9.984;2022-09-09T00:14:03;33.97;;;20.33;;
65189;SDS011;51777;53.570;9.984;2022-09-09T00:16:39;40.92;;;21.42;;
65189;SDS011;51777;53.570;9.984;2022-09-09T00:22:33;37.20;;;22.17;;
65189;SDS011;51777;53.570;9.984;2022-09-09T00:24:42;42.47;;;23.58;;
65189;SDS011;51777;53.570;9.984;2022-09-09T00:27:23;41.75;;;22.63;;
65189;SDS011;51777;53.570;9.984;2022-09-09T00:30:14;44.80;;;24.13;;
65189;SDS011;51777;53.570;9.984;2022-09-09T00:32:55;50.85;;;25.48;;
65189;SDS011;51777;53.570;9.984;2022-09-09T00:35:40;57.28;;;27.45;;
65189;SDS011;51777;53.570;9.984;2022-09-09T00:38:19;63.03;;;27.20;;
65189;SDS011;51777;53.570;9.984;2022-09-09T00:40:51;59.30;;;29.00;;
65189;SDS011;51777;53.570;9.984;2022-09-09T00:43:25;59.78;;;28.35;;
65189;SDS011;51777;53.570;9.984;2022-09-09T00:48:20;53.17;;;26.23;;
65189;SDS011;51777;53.570;9.984;2022-09-09T00:50:56;53.80;;;25.55;;
65189;SDS011;51777;53.570;9.984;2022-09-09T00:56:30;45.45;;;24.10;;
65189;SDS011;51777;53.570;9.984;2022-09-09T01:01:43;43.08;;;23.15;;
65189;SDS011;51777;53.570;9.984;2022-09-09T01:04:10;42.47;;;23.05;;
65189;SDS011;51777;53.570;9.984;2022-09-09T01:06:41;43.28;;;22.92;;
65189;SDS011;51777;53.570;9.984;2022-09-09T01:09:29;39.70;;;21.70;;
65189;SDS011;51777;53.570;9.984;2022-09-09T01:12:11;41.75;;;22.00;;
65189;SDS011;51777;53.570;9.984;2022-09-09T01:14:42;38.25;;;21.60;;
65189;SDS011;51777;53.570;9.984;2022-09-09T01:17:17;38.70;;;20.75;;
65189;SDS011;51777;53.570;9.984;2022-09-09T01:28:29;31.23;;;18.65;;
65189;SDS011;51777;53.570;9.984;2022-09-09T01:30:56;34.95;;;19.25;;
65189;SDS011;51777;53.570;9.984;2022-09-09T01:33:23;36.67;;;19.60;;
65189;SDS011;51777;53.570;9.984;2022-09-09T01:35:53;36.05;;;19.58;;
65189;SDS011;51777;53.570;9.984;2022-09-09T01:38:22;33.22;;;18.95;;
65189;SDS011;51777;53.570;9.984;2022-09-09T01:40:50;31.90;;;18.27;;
65189;SDS011;51777;53.570;9.984;2022-09-09T01:43:17;32.05;;;18.27;;
65189;SDS011;51777;53.570;9.984;2022-09-09T01:45:44;33.60;;;18.20;;
65189;SDS011;51777;53.570;9.984;2022-09-09T01:48:14;34.35;;;19.00;;
65189;SDS011;51777;53.570;9.984;2022-09-09T01:50:39;34.53;;;18.73;;
65189;SDS011;51777;53.570;9.984;2022-09-09T01:53:05;33.03;;;18.70;;
65189;SDS011;51777;53.570;9.984;2022-09-09T01:55:32;31.88;;;18.42;;
65189;SDS011;51777;53.570;9.984;2022-09-09T02:01:02;35.10;;;18.25;;
65189;SDS011;51777;53.570;9.984;2022-09-09T02:03:35;33.08;;;18.10;;
65189;SDS011;51777;53.570;9.984;2022-09-09T02:08:34;34.20;;;19.30;;
65189;SDS011;51777;53.570;9.984;2022-09-09T02:11:14;35.20;;;18.90;;
65189;SDS011;51777;53.570;9.984;2022-09-09T02:13:42;37.42;;;18.58;;
65189;SDS011;51777;53.570;9.984;2022-09-09T02:19:26;40.25;;;19.42;;
65189;SDS011;51777;53.570;9.984;2022-09-09T02:21:39;35.03;;;19.13;;
65189;SDS011;51777;53.570;9.984;2022-09-09T02:24:08;39.70;;;18.85;;
65189;SDS011;51777;53.570;9.984;2022-09-09T02:26:36;33.63;;;18.20;;
65189;SDS011;51777;53.570;9.984;2022-09-09T02:29:07;34.00;;;18.83;;
65189;SDS011;51777;53.570;9.984;2022-09-09T02:31:37;32.65;;;18.10;;
65189;SDS011;51777;53.570;9.984;2022-09-09T02:34:04;33.67;;;17.85;;
65189;SDS011;51777;53.570;9.984;2022-09-09T02:36:34;37.35;;;17.77;;
65189;SDS011;51777;53.570;9.984;2022-09-09T02:39:01;32.30;;;17.90;;
65189;SDS011;51777;53.570;9.984;2022-09-09T02:41:31;33.78;;;17.85;;
65189;SDS011;51777;53.570;9.984;2022-09-09T02:43:58;33.75;;;17.15;;
65189;SDS011;51777;53.570;9.984;2022-09-09T02:51:40;28.75;;;16.40;;
65189;SDS011;51777;53.570;9.984;2022-09-09T02:54:34;30.85;;;17.80;;
65189;SDS011;51777;53.570;9.984;2022-09-09T02:59:31;28.70;;;16.73;;
65189;SDS011;51777;53.570;9.984;2022-09-09T03:01:56;28.92;;;16.85;;
65189;SDS011;51777;53.570;9.984;2022-09-09T03:04:21;29.35;;;17.05;;
65189;SDS011;51777;53.570;9.984;2022-09-09T03:06:49;29.85;;;16.98;;
65189;SDS011;51777;53.570;9.984;2022-09-09T03:09:15;31.33;;;17.00;;
65189;SDS011;51777;53.570;9.984;2022-09-09T03:11:40;29.95;;;16.65;;
65189;SDS011;51777;53.570;9.984;2022-09-09T03:14:05;26.65;;;16.10;;
65189;SDS011;51777;53.570;9.984;2022-09-09T03:16:31;28.10;;;16.30;;
65189;SDS011;51777;53.570;9.984;2022-09-09T03:18:58;27.85;;;15.02;;
65189;SDS011;51777;53.570;9.984;2022-09-09T03:21:23;26.63;;;15.10;;
65189;SDS011;51777;53.570;9.984;2022-09-09T03:23:49;25.70;;;14.98;;
65189;SDS011;51777;53.570;9.984;2022-09-09T03:26:15;29.83;;;15.13;;
65189;SDS011;51777;53.570;9.984;2022-09-09T03:28:41;27.60;;;15.68;;
65189;SDS011;51777;53.570;9.984;2022-09-09T03:31:06;26.95;;;14.82;;
65189;SDS011;51777;53.570;9.984;2022-09-09T03:33:35;24.38;;;15.07;;
65189;SDS011;51777;53.570;9.984;2022-09-09T03:36:02;25.95;;;14.93;;
65189;SDS011;51777;53.570;9.984;2022-09-09T03:38:28;28.08;;;16.00;;
65189;SDS011;51777;53.570;9.984;2022-09-09T03:40:54;29.02;;;15.25;;
65189;SDS011;51777;53.570;9.984;2022-09-09T03:43:25;26.90;;;15.45;;
65189;SDS011;51777;53.570;9.984;2022-09-09T03:45:52;27.15;;;14.88;;
65189;SDS011;51777;53.570;9.984;2022-09-09T03:48:18;26.40;;;14.57;;
65189;SDS011;51777;53.570;9.984;2022-09-09T03:50:45;23.55;;;14.75;;
65189;SDS011;51777;53.570;9.984;2022-09-09T03:53:15;26.25;;;14.95;;
65189;SDS011;51777;53.570;9.984;2022-09-09T03:55:45;23.40;;;14.88;;
65189;SDS011;51777;53.570;9.984;2022-09-09T03:58:12;24.65;;;14.88;;
65189;SDS011;51777;53.570;9.984;2022-09-09T04:00:38;23.50;;;14.90;;
65189;SDS011;51777;53.570;9.984;2022-09-09T04:03:07;25.17;;;14.30;;
65189;SDS011;51777;53.570;9.984;2022-09-09T04:05:35;25.27;;;15.48;;
65189;SDS011;51777;53.570;9.984;2022-09-09T04:08:05;28.13;;;16.15;;
65189;SDS011;51777;53.570;9.984;2022-09-09T04:10:33;28.55;;;15.85;;
65189;SDS011;51777;53.570;9.984;2022-09-09T04:13:02;31.92;;;15.43;;
65189;SDS011;51777;53.570;9.984;2022-09-09T04:15:28;22.30;;;14.18;;
65189;SDS011;51777;53.570;9.984;2022-09-09T04:17:54;24.08;;;14.73;;
65189;SDS011;51777;53.570;9.984;2022-09-09T04:20:20;28.55;;;14.52;;
65189;SDS011;51777;53.570;9.984;2022-09-09T04:22:47;24.27;;;14.20;;
65189;SDS011;51777;53.570;9.984;2022-09-09T04:25:12;24.10;;;13.23;;
65189;SDS011;51777;53.570;9.984;2022-09-09T04:27:38;21.50;;;13.57;;
65189;SDS011;51777;53.570;9.984;2022-09-09T04:30:03;23.27;;;13.25;;
65189;SDS011;51777;53.570;9.984;2022-09-09T04:32:29;21.80;;;12.88;;
65189;SDS011;51777;53.570;9.984;2022-09-09T04:34:57;22.58;;;12.70;;
65189;SDS011;51777;53.570;9.984;2022-09-09T04:37:22;19.77;;;12.30;;
65189;SDS011;51777;53.570;9.984;2022-09-09T04:39:49;21.50;;;12.52;;
65189;SDS011;51777;53.570;9.984;2022-09-09T04:42:15;17.88;;;12.10;;
65189;SDS011;51777;53.570;9.984;2022-09-09T04:44:41;16.48;;;11.18;;
65189;SDS011;51777;53.570;9.984;2022-09-09T04:47:07;19.00;;;11.35;;
65189;SDS011;51777;53.570;9.984;2022-09-09T04:49:32;19.23;;;10.88;;
65189;SDS011;51777;53.570;9.984;2022-09-09T04:51:57;18.08;;;10.25;;
65189;SDS011;51777;53.570;9.984;2022-09-09T04:54:23;15.57;;;10.20;;
65189;SDS011;51777;53.570;9.984;2022-09-09T04:56:49;16.48;;;9.38;;
65189;SDS011;51777;53.570;9.984;2022-09-09T04:59:15;16.73;;;9.60;;
65189;SDS011;51777;53.570;9.984;2022-09-09T05:01:41;14.15;;;8.80;;
65189;SDS011;51777;53.570;9.984;2022-09-09T05:04:07;12.55;;;8.82;;
65189;SDS011;51777;53.570;9.984;2022-09-09T05:06:33;15.68;;;9.25;;
65189;SDS011;51777;53.570;9.984;2022-09-09T05:09:00;13.60;;;9.25;;
65189;SDS011;51777;53.570;9.984;2022-09-09T05:11:26;22.33;;;9.63;;
65189;SDS011;51777;53.570;9.984;2022-09-09T05:13:53;12.32;;;8.65;;
65189;SDS011;51777;53.570;9.984;2022-09-09T05:16:19;15.02;;;8.35;;
65189;SDS011;51777;53.570;9.984;2022-09-09T05:18:46;13.70;;;8.38;;
65189;SDS011;51777;53.570;9.984;2022-09-09T05:21:12;12.30;;;8.23;;
65189;SDS011;51777;53.570;9.984;2022-09-09T05:23:52;11.40;;;7.75;;
65189;SDS011;51777;53.570;9.984;2022-09-09T05:26:19;9.95;;;7.75;;
65189;SDS011;51777;53.570;9.984;2022-09-09T05:28:46;13.65;;;8.00;;
65189;SDS011;51777;53.570;9.984;2022-09-09T05:31:12;9.70;;;7.80;;
65189;SDS011;51777;53.570;9.984;2022-09-09T05:33:40;14.18;;;8.10;;
65189;SDS011;51777;53.570;9.984;2022-09-09T05:36:17;18.92;;;8.00;;
65189;SDS011;51777;53.570;9.984;2022-09-09T05:38:45;14.95;;;8.13;;
65189;SDS011;51777;53.570;9.984;2022-09-09T05:41:11;18.23;;;7.85;;
65189;SDS011;51777;53.570;9.984;2022-09-09T05:43:37;15.48;;;7.47;;
65189;SDS011;51777;53.570;9.984;2022-09-09T05:46:22;18.90;;;7.47;;
65189;SDS011;51777;53.570;9.984;2022-09-09T05:48:49;13.60;;;7.28;;
65189;SDS011;51777;53.570;9.984;2022-09-09T05:51:17;9.52;;;6.82;;
65189;SDS011;51777;53.570;9.984;2022-09-09T05:53:44;20.00;;;7.07;;
65189;SDS011;51777;53.570;9.984;2022-09-09T05:56:11;11.77;;;7.00;;
65189;SDS011;51777;53.570;9.984;2022-09-09T05:58:42;19.10;;;6.60;;
65189;SDS011;51777;53.570;9.984;2022-09-09T06:03:49;15.80;;;5.53;;
65189;SDS011;51777;53.570;9.984;2022-09-09T06:06:17;10.60;;;5.90;;
65189;SDS011;51777;53.570;9.984;2022-09-09T06:08:45;8.07;;;5.75;;
65189;SDS011;51777;53.570;9.984;2022-09-09T06:11:13;7.93;;;5.63;;
65189;SDS011;51777;53.570;9.984;2022-09-09T06:13:40;9.40;;;5.43;;
65189;SDS011;51777;53.570;9.984;2022-09-09T06:16:10;14.30;;;5.63;;
65189;SDS011;51777;53.570;9.984;2022-09-09T06:18:40;10.30;;;5.80;;
65189;SDS011;51777;53.570;9.984;2022-09-09T06:21:08;17.83;;;6.28;;
65189;SDS011;51777;53.570;9.984;2022-09-09T06:23:39;21.38;;;6.68;;
65189;SDS011;51777;53.570;9.984;2022-09-09T06:26:10;8.18;;;6.00;;
65189;SDS011;51777;53.570;9.984;2022-09-09T06:28:37;13.35;;;6.18;;
65189;SDS011;51777;53.570;9.984;2022-09-09T06:31:04;12.90;;;6.10;;
65189;SDS011;51777;53.570;9.984;2022-09-09T06:33:32;16.55;;;5.78;;
65189;SDS011;51777;53.570;9.984;2022-09-09T06:36:02;19.25;;;6.28;;
65189;SDS011;51777;53.570;9.984;2022-09-09T06:38:31;17.92;;;5.95;;
65189;SDS011;51777;53.570;9.984;2022-09-09T06:40:57;33.33;;;6.47;;
65189;SDS011;51777;53.570;9.984;2022-09-09T06:43:24;37.92;;;6.55;;
65189;SDS011;51777;53.570;9.984;2022-09-09T06:45:57;15.55;;;6.25;;
65189;SDS011;51777;53.570;9.984;2022-09-09T06:48:23;12.13;;;5.80;;
65189;SDS011;51777;53.570;9.984;2022-09-09T06:50:51;25.30;;;6.10;;
65189;SDS011;51777;53.570;9.984;2022-09-09T06:53:24;54.97;;;8.27;;
65189;SDS011;51777;53.570;9.984;2022-09-09T06:55:51;17.98;;;5.90;;
65189;SDS011;51777;53.570;9.984;2022-09-09T06:58:16;15.70;;;5.68;;
65189;SDS011;51777;53.570;9.984;2022-09-09T07:00:42;14.95;;;5.13;;
65189;SDS011;51777;53.570;9.984;2022-09-09T07:03:07;18.48;;;5.45;;
65189;SDS011;51777;53.570;9.984;2022-09-09T07:05:32;43.85;;;6.70;;
65189;SDS011;51777;53.570;9.984;2022-09-09T07:07:58;30.88;;;6.05;;
65189;SDS011;51777;53.570;9.984;2022-09-09T07:10:23;23.10;;;5.55;;
65189;SDS011;51777;53.570;9.984;2022-09-09T07:12:53;15.85;;;5.18;;
65189;SDS011;51777;53.570;9.984;2022-09-09T07:15:20;11.38;;;4.18;;
65189;SDS011;51777;53.570;9.984;2022-09-09T07:17:47;6.15;;;3.97;;
65189;SDS011;51777;53.570;9.984;2022-09-09T07:20:13;6.72;;;4.10;;
65189;SDS011;51777;53.570;9.984;2022-09-09T07:22:40;8.35;;;4.15;;
65189;SDS011;51777;53.570;9.984;2022-09-09T07:25:06;9.30;;;4.10;;
65189;SDS011;51777;53.570;9.984;2022-09-09T07:27:32;7.85;;;4.30;;
65189;SDS011;51777;53.570;9.984;2022-09-09T07:29:58;10.05;;;3.83;;
65189;SDS011;51777;53.570;9.984;2022-09-09T07:32:24;6.63;;;3.75;;
65189;SDS011;51777;53.570;9.984;2022-09-09T07:34:50;7.13;;;3.85;;
65189;SDS011;51777;53.570;9.984;2022-09-09T07:37:16;11.48;;;3.88;;
65189;SDS011;51777;53.570;9.984;2022-09-09T07:39:42;9.18;;;3.97;;
65189;SDS011;51777;53.570;9.984;2022-09-09T07:42:09;8.43;;;3.45;;
65189;SDS011;51777;53.570;9.984;2022-09-09T07:44:36;13.10;;;3.55;;
65189;SDS011;51777;53.570;9.984;2022-09-09T07:47:02;15.02;;;3.40;;
65189;SDS011;51777;53.570;9.984;2022-09-09T07:52:04;15.18;;;3.42;;
65189;SDS011;51777;53.570;9.984;2022-09-09T07:54:29;8.18;;;3.53;;
65189;SDS011;51777;53.570;9.984;2022-09-09T07:56:55;11.05;;;3.47;;
65189;SDS011;51777;53.570;9.984;2022-09-09T07:59:20;6.53;;;3.63;;
65189;SDS011;51777;53.570;9.984;2022-09-09T08:01:46;4.63;;;3.50;;
65189;SDS011;51777;53.570;9.984;2022-09-09T08:04:17;8.50;;;3.67;;
65189;SDS011;51777;53.570;9.984;2022-09-09T08:06:45;5.65;;;3.20;;
65189;SDS011;51777;53.570;9.984;2022-09-09T08:09:13;14.60;;;3.70;;
65189;SDS011;51777;53.570;9.984;2022-09-09T08:11:40;16.13;;;4.10;;
65189;SDS011;51777;53.570;9.984;2022-09-09T08:14:07;36.10;;;5.45;;
65189;SDS011;51777;53.570;9.984;2022-09-09T08:16:34;16.58;;;4.57;;
65189;SDS011;51777;53.570;9.984;2022-09-09T08:19:02;16.77;;;4.38;;
65189;SDS011;51777;53.570;9.984;2022-09-09T08:21:29;18.85;;;4.18;;
65189;SDS011;51777;53.570;9.984;2022-09-09T08:23:57;18.88;;;4.88;;
65189;SDS011;51777;53.570;9.984;2022-09-09T08:26:25;42.53;;;4.97;;
65189;SDS011;51777;53.570;9.984;2022-09-09T08:28:54;49.85;;;5.63;;
65189;SDS011;51777;53.570;9.984;2022-09-09T08:31:25;34.40;;;4.60;;
65189;SDS011;51777;53.570;9.984;2022-09-09T08:36:24;54.53;;;6.35;;
65189;SDS011;51777;53.570;9.984;2022-09-09T08:38:52;39.38;;;5.13;;
65189;SDS011;51777;53.570;9.984;2022-09-09T09:03:56;4.03;;;2.08;;
65189;SDS011;51777;53.570;9.984;2022-09-09T09:09:07;8.48;;;1.80;;
65189;SDS011;51777;53.570;9.984;2022-09-09T09:11:52;3.80;;;1.80;;
65189;SDS011;51777;53.570;9.984;2022-09-09T09:14:23;6.80;;;1.90;;
65189;SDS011;51777;53.570;9.984;2022-09-09T09:19:38;3.83;;;1.35;;
65189;SDS011;51777;53.570;9.984;2022-09-09T09:27:36;2.85;;;1.52;;
65189;SDS011;51777;53.570;9.984;2022-09-09T09:30:16;4.28;;;1.30;;
65189;SDS011;51777;53.570;9.984;2022-09-09T09:32:49;3.50;;;1.30;;
65189;SDS011;51777;53.570;9.984;2022-09-09T09:35:15;4.85;;;1.58;;
65189;SDS011;51777;53.570;9.984;2022-09-09T09:37:41;4.97;;;1.38;;
65189;SDS011;51777;53.570;9.984;2022-09-09T09:40:12;5.78;;;1.35;;
65189;SDS011;51777;53.570;9.984;2022-09-09T09:42:49;4.70;;;1.40;;
65189;SDS011;51777;53.570;9.984;2022-09-09T09:48:01;5.68;;;1.55;;
65189;SDS011;51777;53.570;9.984;2022-09-09T09:50:29;10.95;;;1.60;;
65189;SDS011;51777;53.570;9.984;2022-09-09T09:53:00;6.97;;;1.55;;
65189;SDS011;51777;53.570;9.984;2022-09-09T09:55:29;2.75;;;1.35;;
65189;SDS011;51777;53.570;9.984;2022-09-09T09:58:02;5.53;;;1.38;;
65189;SDS011;51777;53.570;9.984;2022-09-09T10:00:33;7.13;;;1.70;;
65189;SDS011;51777;53.570;9.984;2022-09-09T10:03:02;3.00;;;1.42;;
65189;SDS011;51777;53.570;9.984;2022-09-09T10:05:45;6.07;;;1.38;;
65189;SDS011;51777;53.570;9.984;2022-09-09T10:08:12;14.57;;;1.92;;
65189;SDS011;51777;53.570;9.984;2022-09-09T10:19:35;4.35;;;1.20;;
65189;SDS011;51777;53.570;9.984;2022-09-09T10:25:00;3.70;;;1.60;;
65189;SDS011;51777;53.570;9.984;2022-09-09T10:38:45;16.38;;;2.00;;
65189;SDS011;51777;53.570;9.984;2022-09-09T11:03:17;8.25;;;1.20;;
65189;SDS011;51777;53.570;9.984;2022-09-09T11:05:51;6.47;;;1.25;;
65189;SDS011;51777;53.570;9.984;2022-09-09T11:08:23;4.05;;;1.50;;
65189;SDS011;51777;53.570;9.984;2022-09-09T11:11:04;2.60;;;1.10;;
65189;SDS011;51777;53.570;9.984;2022-09-09T11:13:42;2.78;;;1.00;;
65189;SDS011;51777;53.570;9.984;2022-09-09T11:21:56;5.30;;;1.48;;
65189;SDS011;51777;53.570;9.984;2022-09-09T11:27:24;4.95;;;2.10;;
65189;SDS011;51777;53.570;9.984;2022-09-09T11:30:05;16.20;;;2.67;;
65189;SDS011;51777;53.570;9.984;2022-09-09T11:40:59;3.92;;;1.25;;
65189;SDS011;51777;53.570;9.984;2022-09-09T11:43:31;5.05;;;1.35;;
65189;SDS011;51777;53.570;9.984;2022-09-09T11:46:10;63.45;;;6.78;;
65189;SDS011;51777;53.570;9.984;2022-09-09T11:53:49;15.23;;;2.40;;
65189;SDS011;51777;53.570;9.984;2022-09-09T11:56:49;68.85;;;5.63;;
65189;SDS011;51777;53.570;9.984;2022-09-09T11:59:22;75.78;;;5.53;;
65189;SDS011;51777;53.570;9.984;2022-09-09T12:09:28;17.70;;;2.33;;
65189;SDS011;51777;53.570;9.984;2022-09-09T12:14:36;32.78;;;4.18;;
65189;SDS011;51777;53.570;9.984;2022-09-09T12:17:10;31.10;;;5.53;;
65189;SDS011;51777;53.570;9.984;2022-09-09T12:19:45;60.55;;;7.05;;
65189;SDS011;51777;53.570;9.984;2022-09-09T12:25:02;29.33;;;3.20;;
65189;SDS011;51777;53.570;9.984;2022-09-09T12:27:43;73.75;;;5.85;;
65189;SDS011;51777;53.570;9.984;2022-09-09T12:30:16;60.03;;;5.13;;
65189;SDS011;51777;53.570;9.984;2022-09-09T12:32:42;31.67;;;3.20;;
65189;SDS011;51777;53.570;9.984;2022-09-09T12:35:11;13.10;;;2.03;;
65189;SDS011;51777;53.570;9.984;2022-09-09T12:40:31;21.20;;;3.30;;
65189;SDS011;51777;53.570;9.984;2022-09-09T12:43:00;11.35;;;1.75;;
65189;SDS011;51777;53.570;9.984;2022-09-09T12:45:27;9.52;;;1.38;;
65189;SDS011;51777;53.570;9.984;2022-09-09T12:48:00;8.02;;;1.52;;
65189;SDS011;51777;53.570;9.984;2022-09-09T12:50:37;5.78;;;1.20;;
65189;SDS011;51777;53.570;9.984;2022-09-09T12:53:29;12.55;;;2.42;;
65189;SDS011;51777;53.570;9.984;2022-09-09T12:56:00;10.95;;;1.98;;
65189;SDS011;51777;53.570;9.984;2022-09-09T12:58:34;22.50;;;2.47;;
65189;SDS011;51777;53.570;9.984;2022-09-09T13:01:02;22.67;;;3.17;;
65189;SDS011;51777;53.570;9.984;2022-09-09T13:03:30;19.60;;;2.58;;
65189;SDS011;51777;53.570;9.984;2022-09-09T13:05:57;20.83;;;2.35;;
65189;SDS011;51777;53.570;9.984;2022-09-09T13:08:34;19.02;;;2.92;;
65189;SDS011;51777;53.570;9.984;2022-09-09T13:11:01;38.03;;;3.70;;
65189;SDS011;51777;53.570;9.984;2022-09-09T13:16:01;30.73;;;3.35;;
65189;SDS011;51777;53.570;9.984;2022-09-09T13:18:30;26.63;;;3.60;;
65189;SDS011;51777;53.570;9.984;2022-09-09T13:20:58;20.65;;;2.85;;
65189;SDS011;51777;53.570;9.984;2022-09-09T13:23:28;14.65;;;2.42;;
65189;SDS011;51777;53.570;9.984;2022-09-09T13:25:57;8.93;;;1.80;;
65189;SDS011;51777;53.570;9.984;2022-09-09T13:28:25;4.20;;;1.95;;
65189;SDS011;51777;53.570;9.984;2022-09-09T13:30:56;13.93;;;2.40;;
65189;SDS011;51777;53.570;9.984;2022-09-09T13:33:30;8.63;;;2.75;;
65189;SDS011;51777;53.570;9.984;2022-09-09T13:36:02;9.43;;;2.85;;
65189;SDS011;51777;53.570;9.984;2022-09-09T13:39:14;7.55;;;2.80;;
65189;SDS011;51777;53.570;9.984;2022-09-09T13:41:21;11.98;;;2.80;;
65189;SDS011;51777;53.570;9.984;2022-09-09T13:43:48;11.60;;;3.20;;
65189;SDS011;51777;53.570;9.984;2022-09-09T13:48:56;7.82;;;2.80;;
65189;SDS011;51777;53.570;9.984;2022-09-09T13:51:45;8.38;;;3.20;;
65189;SDS011;51777;53.570;9.984;2022-09-09T13:54:14;7.35;;;2.97;;
65189;SDS011;51777;53.570;9.984;2022-09-09T13:56:41;13.68;;;3.97;;
65189;SDS011;51777;53.570;9.984;2022-09-09T13:59:12;7.25;;;3.15;;
65189;SDS011;51777;53.570;9.984;2022-09-09T14:01:39;10.73;;;5.75;;
65189;SDS011;51777;53.570;9.984;2022-09-09T14:04:05;11.75;;;3.63;;
65189;SDS011;51777;53.570;9.984;2022-09-09T14:06:31;18.10;;;3.28;;
65189;SDS011;51777;53.570;9.984;2022-09-09T14:08:57;23.75;;;7.57;;
65189;SDS011;51777;53.570;9.984;2022-09-09T14:11:23;69.25;;;6.80;;
65189;SDS011;51777;53.570;9.984;2022-09-09T14:13:49;14.88;;;2.60;;
65189;SDS011;51777;53.570;9.984;2022-09-09T14:16:16;45.47;;;5.93;;
65189;SDS011;51777;53.570;9.984;2022-09-09T14:18:42;19.13;;;3.50;;
65189;SDS011;51777;53.570;9.984;2022-09-09T14:21:09;9.50;;;2.70;;
65189;SDS011;51777;53.570;9.984;2022-09-09T14:23:35;11.18;;;2.55;;
65189;SDS011;51777;53.570;9.984;2022-09-09T14:26:00;9.93;;;2.90;;
65189;SDS011;51777;53.570;9.984;2022-09-09T14:28:26;30.70;;;3.47;;
65189;SDS011;51777;53.570;9.984;2022-09-09T14:30:53;17.15;;;2.95;;
65189;SDS011;51777;53.570;9.984;2022-09-09T14:33:19;11.93;;;2.75;;
65189;SDS011;51777;53.570;9.984;2022-09-09T14:35:44;14.70;;;2.35;;
65189;SDS011;51777;53.570;9.984;2022-09-09T14:38:11;27.58;;;3.00;;
65189;SDS011;51777;53.570;9.984;2022-09-09T14:40:37;28.02;;;3.50;;
65189;SDS011;51777;53.570;9.984;2022-09-09T14:43:03;23.10;;;3.38;;
65189;SDS011;51777;53.570;9.984;2022-09-09T14:45:30;18.70;;;2.30;;
65189;SDS011;51777;53.570;9.984;2022-09-09T14:47:56;10.95;;;2.17;;
65189;SDS011;51777;53.570;9.984;2022-09-09T14:50:22;65.25;;;4.55;;
65189;SDS011;51777;53.570;9.984;2022-09-09T14:52:49;54.30;;;4.15;;
65189;SDS011;51777;53.570;9.984;2022-09-09T14:55:15;53.60;;;3.97;;
65189;SDS011;51777;53.570;9.984;2022-09-09T14:57:41;59.80;;;4.80;;
65189;SDS011;51777;53.570;9.984;2022-09-09T15:00:07;32.28;;;4.82;;
65189;SDS011;51777;53.570;9.984;2022-09-09T15:02:34;53.03;;;4.72;;
65189;SDS011;51777;53.570;9.984;2022-09-09T15:04:59;62.55;;;4.93;;
65189;SDS011;51777;53.570;9.984;2022-09-09T15:07:26;44.45;;;4.38;;
65189;SDS011;51777;53.570;9.984;2022-09-09T15:09:53;46.30;;;3.58;;
65189;SDS011;51777;53.570;9.984;2022-09-09T15:12:19;39.30;;;4.25;;
65189;SDS011;51777;53.570;9.984;2022-09-09T15:14:46;27.85;;;4.20;;
65189;SDS011;51777;53.570;9.984;2022-09-09T15:17:13;30.88;;;3.60;;
65189;SDS011;51777;53.570;9.984;2022-09-09T15:19:39;13.88;;;2.70;;
65189;SDS011;51777;53.570;9.984;2022-09-09T15:22:04;18.35;;;3.05;;
65189;SDS011;51777;53.570;9.984;2022-09-09T15:24:31;21.05;;;3.08;;
65189;SDS011;51777;53.570;9.984;2022-09-09T15:26:57;22.13;;;3.55;;
65189;SDS011;51777;53.570;9.984;2022-09-09T15:29:23;13.00;;;2.92;;
65189;SDS011;51777;53.570;9.984;2022-09-09T15:31:49;11.23;;;2.88;;
65189;SDS011;51777;53.570;9.984;2022-09-09T15:34:14;12.70;;;2.90;;
65189;SDS011;51777;53.570;9.984;2022-09-09T15:36:40;9.93;;;2.40;;
65189;SDS011;51777;53.570;9.984;2022-09-09T15:39:12;8.70;;;2.60;;
65189;SDS011;51777;53.570;9.984;2022-09-09T15:41:41;5.95;;;2.40;;
65189;SDS011;51777;53.570;9.984;2022-09-09T15:44:07;9.57;;;2.83;;
65189;SDS011;51777;53.570;9.984;2022-09-09T15:46:36;7.35;;;2.20;;
65189;SDS011;51777;53.570;9.984;2022-09-09T15:51:38;5.32;;;1.40;;
65189;SDS011;51777;53.570;9.984;2022-09-09T15:54:06;4.47;;;1.52;;
65189;SDS011;51777;53.570;9.984;2022-09-09T15:56:32;4.22;;;1.42;;
65189;SDS011;51777;53.570;9.984;2022-09-09T15:58:58;4.25;;;1.42;;
65189;SDS011;51777;53.570;9.984;2022-09-09T16:01:25;3.35;;;1.35;;
65189;SDS011;51777;53.570;9.984;2022-09-09T16:03:51;4.95;;;1.30;;
65189;SDS011;51777;53.570;9.984;2022-09-09T16:06:18;4.55;;;1.40;;
65189;SDS011;51777;53.570;9.984;2022-09-09T16:08:46;3.72;;;2.03;;
65189;SDS011;51777;53.570;9.984;2022-09-09T16:11:19;8.02;;;3.00;;
65189;SDS011;51777;53.570;9.984;2022-09-09T16:13:47;4.15;;;1.90;;
65189;SDS011;51777;53.570;9.984;2022-09-09T16:16:14;6.90;;;2.45;;
65189;SDS011;51777;53.570;9.984;2022-09-09T16:18:42;3.45;;;1.35;;
65189;SDS011;51777;53.570;9.984;2022-09-09T16:23:46;3.20;;;1.58;;
65189;SDS011;51777;53.570;9.984;2022-09-09T16:26:13;3.50;;;1.40;;
65189;SDS011;51777;53.570;9.984;2022-09-09T16:28:40;4.03;;;1.40;;
65189;SDS011;51777;53.570;9.984;2022-09-09T16:31:06;4.45;;;1.35;;
65189;SDS011;51777;53.570;9.984;2022-09-09T16:33:33;6.07;;;1.42;;
65189;SDS011;51777;53.570;9.984;2022-09-09T16:36:04;9.50;;;1.55;;
65189;SDS011;51777;53.570;9.984;2022-09-09T16:38:30;9.95;;;1.42;;
65189;SDS011;51777;53.570;9.984;2022-09-09T16:40:59;4.80;;;1.40;;
65189;SDS011;51777;53.570;9.984;2022-09-09T16:43:25;6.47;;;1.60;;
65189;SDS011;51777;53.570;9.984;2022-09-09T16:45:50;4.82;;;1.15;;
65189;SDS011;51777;53.570;9.984;2022-09-09T16:48:16;4.72;;;1.25;;
65189;SDS011;51777;53.570;9.984;2022-09-09T16:50:41;1.73;;;0.98;;
65189;SDS011;51777;53.570;9.984;2022-09-09T16:53:06;3.65;;;1.10;;
65189;SDS011;51777;53.570;9.984;2022-09-09T16:55:37;2.58;;;1.23;;
65189;SDS011;51777;53.570;9.984;2022-09-09T16:58:04;3.80;;;0.98;;
65189;SDS011;51777;53.570;9.984;2022-09-09T17:00:30;3.25;;;1.38;;
65189;SDS011;51777;53.570;9.984;2022-09-09T17:02:56;1.90;;;1.00;;
65189;SDS011;51777;53.570;9.984;2022-09-09T17:05:21;5.65;;;1.65;;
65189;SDS011;51777;53.570;9.984;2022-09-09T17:07:48;7.03;;;1.63;;
65189;SDS011;51777;53.570;9.984;2022-09-09T17:10:13;5.60;;;1.38;;
65189;SDS011;51777;53.570;9.984;2022-09-09T17:12:39;2.95;;;1.10;;
65189;SDS011;51777;53.570;9.984;2022-09-09T17:15:05;3.22;;;1.70;;
65189;SDS011;51777;53.570;9.984;2022-09-09T17:17:31;5.90;;;1.30;;
65189;SDS011;51777;53.570;9.984;2022-09-09T17:19:56;2.38;;;1.30;;
65189;SDS011;51777;53.570;9.984;2022-09-09T17:22:22;6.72;;;1.60;;
65189;SDS011;51777;53.570;9.984;2022-09-09T17:24:48;7.03;;;1.52;;
65189;SDS011;51777;53.570;9.984;2022-09-09T17:27:14;5.30;;;1.50;;
65189;SDS011;51777;53.570;9.984;2022-09-09T17:29:40;7.72;;;1.95;;
65189;SDS011;51777;53.570;9.984;2022-09-09T17:32:06;8.38;;;2.38;;
65189;SDS011;51777;53.570;9.984;2022-09-09T17:34:32;7.03;;;2.00;;
65189;SDS011;51777;53.570;9.984;2022-09-09T17:36:58;3.55;;;1.80;;
65189;SDS011;51777;53.570;9.984;2022-09-09T17:39:23;4.45;;;1.90;;
65189;SDS011;51777;53.570;9.984;2022-09-09T17:41:49;9.27;;;3.13;;
65189;SDS011;51777;53.570;9.984;2022-09-09T17:44:15;11.48;;;2.60;;
65189;SDS011;51777;53.570;9.984;2022-09-09T17:46:41;4.93;;;2.53;;